Meridian Naval Air Station
KNMM : now visible

Airfield :











YOU CAN JOIN US ON...

 
LOGIN :

Register | Disclaimer

   EN    FR    IT 

 









Legend :    VFR   Marginal VFR   IFR   Intensive IFR   Very Intensive IFR
Visi :
Ceiling :
>= 8 km
>= 3000ft
5 to 8 km
1000 to 3000 ft
1500m to 5 km
500 to 1000 ft
800 to 1500m
200 to 500 ft
< 800m
< 200 ft
Symbols :   Thunderstorms  Fog  Heavy snow  Heavy precipitations  Wind > 20 kt






- Airport Elevation : 316 ft


KNMM - Meridian Naval Air Station

CURRENT METAR :
  • 261832Z 00000KT 10SM BKN015 BKN029 OVC033 24/21 A2992 RMK AO2 T2 SET T02390211

EXPIRED METARs :
  • 261825Z 00000KT 10SM BKN013 OVC029 23/21 A2992 RMK AO2 T2 SET T02330211
  • 261803Z 00000KT 10SM BKN010 OVC015 23/21 A2992 RMK AO2 T2 SET T02330206
  • 261756Z 15003KT 10SM BKN009 OVC015 23/21 A2993 RMK AO2 RAE08 CIG 007V013 SLP141 P0000 60001 T02330211 10239 20206 58010
  • 261732Z 14004KT 10SM BKN009 OVC013 23/21 A2993 RMK AO2 RAE08 CIG 004V011 P0000 T02330211
  • 261712Z 12005KT 3SM SCT007 OVC011 23/21 A2994 RMK AO2 SFC VIS 7 RAE08 P0000 T02280211
  • 261656Z 13003KT 3SM -RA BKN008 OVC011 22/21 A2995 RMK AO2 SFC VIS 8 RAB42 SLP148 P0000 T02220211
  • 261556Z 12004KT 3SM BR BKN006 OVC012 22/21 A2995 RMK AO2 SFC VIS 6 RAE45 CIG 003V009 SLP149 P0001 T02170206

TAF TAF KNMM
Valid from the 26 at 15:00 until the 27 at 15:00 UTC


2615/2715 11008KT 9999 VCSH SCT005 BKN015 OVC025 QNH2989INS
TEMPO 2615/2619 1600 RA BR BKN005 OVC015
FM261900 09006KT 9999 VCTS FEW008CB SCT015 BKN025 BKN150 BKN280 QNH2988INS
TEMPO 2619/2701 VRB20G30KT 1200 +TSRA BR BKN008CB OVC015
TEMPO 2701/2707 VRB20G30KT 1200 +TSRA BR BKN008CB OVC015
FM270700 12004KT 6000 BR OVC005 QNH2988INS T26/2621Z T20/2712Z FN20035
KZME FIR / North America



MET'MAP, your aeronautical weather chart ! - Copyright ORBIFLY December 2007 - Disclaimer

ORBIFLY MET'MAP TEAM :

Programming & Development : Alexandra Zaïnal
Concept & original design : Baudouin d'Aumeries
Assistance for programming : Marc-Olivier Méhu
Technical & hardware support : Manuel Goepfert

Contact : metmap@orbifly.com




SOURCES & CREDITS :

   NOAA       Earth
Advisory